createdAt,value
2023-02-19T00:06:28.413Z,100303
2023-02-19T00:16:29.403Z,100305
2023-02-19T00:26:30.342Z,100299
2023-02-19T00:36:31.391Z,100300
2023-02-19T00:46:32.436Z,100298
2023-02-19T00:56:33.350Z,100301
2023-02-19T01:06:34.238Z,100300
2023-02-19T01:16:35.091Z,100287
2023-02-19T01:26:36.193Z,100281
2023-02-19T01:36:37.024Z,100269
2023-02-19T01:46:37.967Z,100272
2023-02-19T01:56:38.846Z,100278
2023-02-19T02:06:39.880Z,100275
2023-02-19T02:16:40.837Z,100259
2023-02-19T02:26:41.563Z,100231
2023-02-19T02:36:42.507Z,100251
2023-02-19T02:46:43.235Z,100250
2023-02-19T02:56:44.146Z,100255
2023-02-19T03:06:44.983Z,100256
2023-02-19T03:16:45.863Z,100252
2023-02-19T03:26:46.727Z,100269
2023-02-19T03:36:47.594Z,100280
2023-02-19T03:46:48.580Z,100280
2023-02-19T03:56:49.561Z,100296
2023-02-19T04:06:50.374Z,100279
2023-02-19T04:16:51.296Z,100275
2023-02-19T04:26:52.109Z,100269
2023-02-19T04:36:52.869Z,100267
2023-02-19T04:46:53.701Z,100270
2023-02-19T04:56:55.755Z,100277
2023-02-19T05:06:55.481Z,100245
2023-02-19T05:16:56.288Z,100235
2023-02-19T05:26:58.600Z,100239
2023-02-19T05:36:58.174Z,100256
2023-02-19T05:46:59.051Z,100262
2023-02-19T06:07:00.843Z,100271
2023-02-19T06:17:01.743Z,100262
2023-02-19T06:27:02.723Z,100248
2023-02-19T06:37:03.551Z,100246
2023-02-19T06:47:04.473Z,100245
2023-02-19T06:57:05.453Z,100262
2023-02-19T07:07:06.520Z,100260
2023-02-19T07:17:07.332Z,100266
2023-02-19T07:27:08.332Z,100253
2023-02-19T07:37:10.752Z,100245
2023-02-19T07:47:10.235Z,100231
2023-02-19T07:57:11.154Z,100241
2023-02-19T08:07:12.083Z,100270
2023-02-19T08:17:13.090Z,100268
2023-02-19T08:27:14.068Z,100287
2023-02-19T08:37:15.037Z,100283
2023-02-19T08:47:15.918Z,100277
2023-02-19T08:57:16.884Z,100262
2023-02-19T09:07:18.909Z,100267
2023-02-19T09:17:18.782Z,100266
2023-02-19T09:27:19.771Z,100267
2023-02-19T09:37:21.046Z,100255
2023-02-19T09:47:22.112Z,100256
2023-02-19T09:57:22.688Z,100231
2023-02-19T10:07:23.900Z,100203
2023-02-19T10:17:25.093Z,100191
2023-02-19T10:27:25.996Z,100175
2023-02-19T10:37:27.071Z,100147
2023-02-19T10:47:28.075Z,100119
2023-02-19T10:57:28.948Z,100111
2023-02-19T11:07:34.206Z,100085
2023-02-19T11:17:31.053Z,100088
2023-02-19T11:27:33.305Z,100067
2023-02-19T11:37:33.497Z,100055
2023-02-19T11:47:36.308Z,100050
2023-02-19T11:57:35.865Z,100027
2023-02-19T12:07:36.779Z,100020
2023-02-19T12:17:40.169Z,100022
2023-02-19T12:37:40.303Z,100017
2023-02-19T12:47:41.655Z,100031
2023-02-19T12:57:42.570Z,100027
2023-02-19T13:07:44.101Z,100045
2023-02-19T13:17:44.986Z,100056
2023-02-19T13:37:46.958Z,100063
2023-02-19T13:47:48.112Z,100082
2023-02-19T13:57:49.433Z,100080
2023-02-19T14:17:51.216Z,100125
2023-02-19T14:27:54.386Z,100137
2023-02-19T14:37:53.249Z,100164
2023-02-19T14:47:55.522Z,100191
2023-02-19T14:57:55.833Z,100165
2023-02-19T15:07:56.297Z,100168
2023-02-19T15:17:57.330Z,100174
2023-02-19T15:28:00.192Z,100140
2023-02-19T15:37:59.145Z,100142
2023-02-19T15:48:02.193Z,100162
2023-02-19T15:58:01.156Z,100186
2023-02-19T16:08:04.384Z,100182
2023-02-19T16:18:02.964Z,100215
2023-02-19T16:28:03.912Z,100227
2023-02-19T16:38:04.891Z,100239
2023-02-19T16:48:05.829Z,100258
2023-02-19T16:58:06.384Z,100257
2023-02-19T17:08:07.578Z,100283
2023-02-19T17:18:08.328Z,100301
2023-02-19T17:28:08.950Z,100288
2023-02-19T17:38:09.982Z,100302
2023-02-19T17:48:11.214Z,100313
2023-02-19T17:58:11.626Z,100344
2023-02-19T18:08:14.084Z,100354
2023-02-19T18:18:13.209Z,100398
2023-02-19T18:38:14.821Z,100444
2023-02-19T18:48:15.576Z,100465
2023-02-19T18:58:16.377Z,100494
2023-02-19T19:08:17.637Z,100488
2023-02-19T19:18:20.090Z,100477
2023-02-19T19:38:19.095Z,100474
2023-02-19T19:48:21.987Z,100491
2023-02-19T19:58:20.890Z,100511
2023-02-19T20:08:22.198Z,100576
2023-02-19T20:18:23.830Z,100600
2023-02-19T20:28:22.794Z,100642
2023-02-19T20:38:26.264Z,100654
2023-02-19T20:48:24.026Z,100682
2023-02-19T20:58:24.732Z,100692
2023-02-19T21:08:26.672Z,100720
2023-02-19T21:18:25.659Z,100723
2023-02-19T21:28:26.329Z,100745
2023-02-19T21:38:27.072Z,100748
2023-02-19T21:48:27.583Z,100747
2023-02-19T21:58:27.945Z,100727
2023-02-19T22:08:28.553Z,100736
2023-02-19T22:18:29.091Z,100744
2023-02-19T22:28:29.528Z,100739
2023-02-19T22:38:30.071Z,100741
2023-02-19T22:48:30.592Z,100759
2023-02-19T22:58:30.957Z,100728
2023-02-19T23:08:31.433Z,100789
2023-02-19T23:18:31.915Z,100782
2023-02-19T23:28:32.376Z,100827
2023-02-19T23:38:32.815Z,100831
2023-02-19T23:48:33.283Z,100837
2023-02-19T23:58:33.762Z,100843
